createdAt,value
2023-04-30T00:02:07.387Z,9.30
2023-04-30T00:04:45.247Z,8.60
2023-04-30T00:07:20.566Z,8.90
2023-04-30T00:09:59.414Z,10.20
2023-04-30T00:12:37.872Z,9.40
2023-04-30T00:15:13.861Z,10.00
2023-04-30T00:17:58.697Z,8.80
2023-04-30T00:20:45.934Z,9.70
2023-04-30T00:23:27.544Z,10.40
2023-04-30T00:26:06.362Z,11.20
2023-04-30T00:28:42.626Z,10.40
2023-04-30T00:31:14.644Z,10.60
2023-04-30T00:33:46.399Z,11.10
2023-04-30T00:36:19.560Z,10.40
2023-04-30T00:38:52.332Z,11.90
2023-04-30T00:41:25.180Z,12.60
2023-04-30T00:43:56.815Z,12.90
2023-04-30T00:46:28.846Z,13.30
2023-04-30T00:49:05.217Z,12.80
2023-04-30T00:51:37.739Z,12.50
2023-04-30T00:54:10.104Z,14.40
2023-04-30T00:56:54.926Z,16.10
2023-04-30T00:59:26.796Z,15.60
2023-04-30T01:01:59.716Z,15.30
2023-04-30T01:04:34.507Z,16.90
2023-04-30T01:07:09.638Z,19.20
2023-04-30T01:09:41.196Z,18.50
2023-04-30T01:12:20.230Z,19.20
2023-04-30T01:15:06.096Z,21.30
2023-04-30T01:17:46.097Z,20.60
2023-04-30T01:20:17.908Z,20.70
2023-04-30T01:22:57.008Z,21.30
2023-04-30T01:25:45.962Z,19.40
2023-04-30T01:28:20.477Z,20.30
2023-04-30T01:30:53.340Z,18.80
2023-04-30T01:33:25.104Z,21.00
2023-04-30T01:36:27.921Z,19.70
2023-04-30T01:39:23.212Z,18.90
2023-04-30T01:42:02.116Z,22.50
2023-04-30T01:44:51.121Z,21.30
2023-04-30T01:47:32.348Z,22.20
2023-04-30T01:50:17.183Z,25.90
2023-04-30T01:52:53.791Z,23.80
2023-04-30T01:55:36.709Z,25.10
2023-04-30T01:58:11.447Z,21.80
2023-04-30T02:03:14.697Z,18.80
2023-04-30T02:05:46.593Z,19.30
2023-04-30T02:08:18.852Z,21.80
2023-04-30T02:10:52.571Z,24.30
2023-04-30T02:13:24.413Z,23.80
2023-04-30T02:15:56.428Z,23.50
2023-04-30T02:18:28.014Z,21.30
2023-04-30T02:21:00.636Z,21.30
2023-04-30T02:23:32.554Z,23.50
2023-04-30T02:26:04.521Z,22.70
2023-04-30T02:28:36.595Z,20.70
2023-04-30T02:31:09.024Z,21.60
2023-04-30T02:33:41.422Z,20.90
2023-04-30T02:36:13.178Z,20.10
2023-04-30T02:38:44.965Z,20.30
2023-04-30T02:41:16.535Z,19.00
2023-04-30T02:43:48.288Z,17.80
2023-04-30T02:46:21.480Z,17.40
2023-04-30T02:48:53.875Z,18.40
2023-04-30T02:51:25.478Z,17.30
2023-04-30T02:53:57.809Z,16.70
2023-04-30T02:56:29.434Z,15.50
2023-04-30T02:59:01.233Z,16.70
2023-04-30T03:01:34.479Z,17.40
2023-04-30T03:04:06.384Z,16.60
2023-04-30T03:06:38.190Z,17.30
2023-04-30T03:09:10.381Z,15.60
2023-04-30T03:11:42.403Z,15.60
2023-04-30T03:14:14.833Z,16.50
2023-04-30T03:16:46.432Z,15.20
2023-04-30T03:19:22.372Z,15.00
2023-04-30T03:21:55.953Z,14.50
2023-04-30T03:24:27.820Z,14.60
2023-04-30T03:26:59.439Z,14.70
2023-04-30T03:29:33.893Z,14.20
2023-04-30T03:32:07.064Z,13.30
2023-04-30T03:34:38.584Z,13.90
2023-04-30T03:37:10.214Z,13.00
2023-04-30T03:39:41.742Z,13.40
2023-04-30T03:42:13.599Z,12.70
2023-04-30T03:44:45.231Z,11.80
2023-04-30T03:47:16.961Z,12.80
2023-04-30T03:49:59.902Z,11.50
2023-04-30T03:53:14.329Z,12.40
2023-04-30T03:55:57.478Z,11.30
2023-04-30T03:58:29.163Z,12.20
2023-04-30T04:01:00.702Z,11.40
2023-04-30T04:03:32.771Z,12.20
2023-04-30T04:06:05.793Z,11.30
2023-04-30T04:08:39.124Z,11.20
2023-04-30T04:11:11.106Z,10.50
2023-04-30T04:13:42.813Z,10.50
2023-04-30T04:16:14.533Z,10.20
2023-04-30T04:18:47.522Z,10.60
2023-04-30T04:21:20.186Z,10.20
2023-04-30T04:23:51.685Z,10.60
2023-04-30T04:26:26.183Z,11.20
2023-04-30T04:28:58.163Z,10.90
2023-04-30T04:31:29.827Z,10.40
2023-04-30T04:34:05.416Z,10.70
2023-04-30T04:36:37.390Z,10.30
2023-04-30T04:39:08.991Z,10.50
2023-04-30T04:41:41.657Z,9.30
2023-04-30T04:44:13.514Z,11.00
2023-04-30T04:46:46.263Z,10.20
2023-04-30T04:49:19.603Z,9.70
2023-04-30T04:51:51.400Z,10.40
2023-04-30T04:54:22.960Z,8.70
2023-04-30T04:56:54.639Z,10.00
2023-04-30T04:59:26.960Z,9.80
2023-04-30T05:01:58.577Z,9.40
2023-04-30T05:04:30.893Z,9.20
2023-04-30T05:07:02.402Z,8.30
2023-04-30T05:09:34.934Z,9.10
2023-04-30T05:12:07.427Z,10.00
2023-04-30T05:14:38.922Z,9.70
2023-04-30T05:17:11.065Z,8.80
2023-04-30T05:19:42.670Z,8.90
2023-04-30T05:22:14.308Z,8.40
2023-04-30T05:24:46.006Z,8.20
2023-04-30T05:27:17.388Z,8.40
2023-04-30T05:29:49.168Z,10.50
2023-04-30T05:32:20.649Z,8.10
2023-04-30T05:34:52.583Z,9.00
2023-04-30T05:37:24.162Z,9.40
2023-04-30T05:39:55.955Z,8.50
2023-04-30T05:42:27.810Z,8.20
2023-04-30T05:44:59.277Z,8.30
2023-04-30T05:47:31.470Z,8.10
2023-04-30T05:50:03.218Z,8.00
2023-04-30T05:52:34.935Z,7.60
2023-04-30T05:55:07.042Z,6.90
2023-04-30T05:57:38.682Z,7.40
2023-04-30T06:00:14.284Z,6.80
2023-04-30T06:02:45.732Z,6.50
2023-04-30T06:05:17.385Z,7.00
2023-04-30T06:07:49.112Z,6.00
2023-04-30T06:10:21.473Z,5.80
2023-04-30T06:12:53.361Z,6.70
2023-04-30T06:15:25.500Z,5.30
2023-04-30T06:17:57.343Z,5.70
2023-04-30T06:20:29.199Z,5.60
2023-04-30T06:23:03.352Z,5.30
2023-04-30T06:25:34.997Z,5.10
2023-04-30T06:28:08.667Z,4.80
2023-04-30T06:30:40.597Z,4.30
2023-04-30T06:33:12.164Z,4.00
2023-04-30T06:35:43.654Z,4.50
2023-04-30T06:38:15.658Z,4.80
2023-04-30T06:40:47.287Z,4.30
2023-04-30T06:43:19.123Z,4.20
2023-04-30T06:45:50.737Z,4.50
2023-04-30T06:48:22.395Z,3.80
2023-04-30T06:50:54.271Z,3.80
2023-04-30T06:53:26.067Z,4.30
2023-04-30T06:55:57.829Z,4.10
2023-04-30T06:58:29.689Z,2.90
2023-04-30T07:01:02.484Z,3.20
2023-04-30T07:03:34.923Z,3.70
2023-04-30T07:06:08.705Z,2.90
2023-04-30T07:08:41.613Z,3.50
2023-04-30T07:11:14.358Z,3.00
2023-04-30T07:13:46.470Z,3.00
2023-04-30T07:16:19.913Z,2.60
2023-04-30T07:18:52.807Z,3.00
2023-04-30T07:21:25.921Z,2.50
2023-04-30T07:23:57.805Z,2.60
2023-04-30T07:26:29.450Z,2.20
2023-04-30T07:29:04.080Z,2.20
2023-04-30T07:34:06.315Z,2.80
2023-04-30T07:36:39.072Z,2.00
2023-04-30T07:39:11.983Z,2.00
2023-04-30T07:41:47.704Z,2.20
2023-04-30T07:44:19.880Z,1.90
2023-04-30T07:46:52.001Z,2.10
2023-04-30T07:49:24.181Z,2.20
2023-04-30T07:51:55.935Z,2.40
2023-04-30T07:54:28.409Z,2.10
2023-04-30T07:57:00.990Z,2.10
2023-04-30T07:59:39.392Z,1.90
2023-04-30T08:02:11.286Z,2.30
2023-04-30T08:04:43.544Z,2.00
2023-04-30T08:07:16.060Z,1.90
2023-04-30T08:09:48.376Z,2.10
2023-04-30T08:12:21.976Z,2.80
2023-04-30T08:15:00.795Z,2.10
2023-04-30T08:17:34.040Z,3.70
2023-04-30T08:20:07.501Z,2.40
2023-04-30T08:22:39.697Z,2.30
2023-04-30T08:25:14.024Z,2.30
2023-04-30T08:27:46.749Z,2.20
2023-04-30T08:30:18.677Z,2.50
2023-04-30T08:32:50.615Z,2.30
2023-04-30T08:35:22.246Z,2.40
2023-04-30T08:37:54.490Z,2.00
2023-04-30T08:40:49.360Z,2.20
2023-04-30T08:43:21.995Z,1.80
2023-04-30T08:45:54.523Z,2.10
2023-04-30T08:48:29.613Z,2.10
2023-04-30T08:51:03.202Z,2.40
2023-04-30T08:53:36.968Z,2.10
2023-04-30T08:56:11.555Z,1.90
2023-04-30T09:01:14.002Z,1.80
2023-04-30T09:03:46.317Z,1.70
2023-04-30T09:06:20.588Z,1.60
2023-04-30T09:08:53.573Z,1.70
2023-04-30T09:11:27.786Z,1.60
2023-04-30T09:14:03.279Z,1.20
2023-04-30T09:16:49.298Z,1.40
2023-04-30T09:19:28.966Z,1.40
2023-04-30T09:22:01.138Z,1.20
2023-04-30T09:24:49.682Z,1.30
2023-04-30T09:27:23.639Z,1.20
2023-04-30T09:29:55.689Z,1.30
2023-04-30T09:32:29.322Z,1.40
2023-04-30T09:35:02.278Z,1.50
2023-04-30T09:37:41.438Z,1.30
2023-04-30T09:40:15.048Z,1.10
2023-04-30T09:43:01.874Z,1.10
2023-04-30T09:45:48.020Z,1.10
2023-04-30T09:48:22.823Z,1.10
2023-04-30T09:50:55.833Z,1.20
2023-04-30T09:53:30.236Z,1.10
2023-04-30T09:56:03.718Z,1.10
2023-04-30T09:58:38.643Z,1.40
2023-04-30T10:01:12.589Z,1.10
2023-04-30T10:03:47.663Z,1.10
2023-04-30T10:06:20.291Z,1.20
2023-04-30T10:08:55.420Z,1.40
2023-04-30T10:11:32.145Z,1.30
2023-04-30T10:14:05.949Z,1.20
2023-04-30T10:16:45.318Z,1.60
2023-04-30T10:19:20.919Z,1.50
2023-04-30T10:21:53.159Z,1.20
2023-04-30T10:24:26.092Z,1.20
2023-04-30T10:26:59.053Z,1.20
2023-04-30T10:29:31.010Z,1.50
2023-04-30T10:32:05.583Z,1.30
2023-04-30T10:34:45.834Z,1.70
2023-04-30T10:37:23.727Z,1.70
2023-04-30T10:39:56.355Z,1.60
2023-04-30T10:42:28.674Z,1.50
2023-04-30T10:45:00.281Z,1.50
2023-04-30T10:47:33.499Z,1.70
2023-04-30T10:50:10.294Z,1.20
2023-04-30T10:52:42.306Z,1.30
2023-04-30T10:55:18.918Z,1.40
2023-04-30T10:57:55.684Z,1.30
2023-04-30T11:00:34.179Z,1.40
2023-04-30T11:03:07.858Z,1.40
2023-04-30T11:05:41.531Z,1.40
2023-04-30T11:08:16.468Z,1.20
2023-04-30T11:11:02.093Z,1.40
2023-04-30T11:13:43.554Z,1.40
2023-04-30T11:16:17.646Z,0.90
2023-04-30T11:18:49.504Z,0.90
2023-04-30T11:21:24.243Z,1.20
2023-04-30T11:26:29.849Z,1.60
2023-04-30T11:29:03.797Z,1.30
2023-04-30T11:31:38.871Z,1.40
2023-04-30T11:34:12.015Z,1.50
2023-04-30T11:36:46.803Z,1.40
2023-04-30T11:39:21.307Z,1.30
2023-04-30T11:41:52.889Z,1.20
2023-04-30T11:44:29.781Z,1.60
2023-04-30T11:47:01.866Z,1.30
2023-04-30T11:49:34.023Z,1.40
2023-04-30T11:52:05.746Z,1.50
2023-04-30T11:54:40.923Z,2.00
2023-04-30T11:57:12.702Z,1.40
2023-04-30T11:59:48.217Z,1.60
2023-04-30T12:02:20.713Z,2.00
2023-04-30T12:04:52.671Z,1.80
2023-04-30T12:07:24.206Z,1.10
2023-04-30T12:10:00.780Z,1.50
2023-04-30T12:12:33.143Z,1.50
2023-04-30T12:15:14.782Z,1.50
2023-04-30T12:17:46.672Z,1.30
2023-04-30T12:20:19.550Z,1.30
2023-04-30T12:22:52.048Z,1.50
2023-04-30T12:25:24.587Z,1.40
2023-04-30T12:27:56.463Z,1.30
2023-04-30T12:30:29.483Z,1.20
2023-04-30T12:33:04.608Z,1.30
2023-04-30T12:35:36.139Z,1.70
2023-04-30T12:38:09.906Z,1.50
2023-04-30T12:40:41.357Z,1.60
2023-04-30T12:43:17.029Z,1.90
2023-04-30T12:45:53.071Z,1.30
2023-04-30T12:48:26.419Z,1.40
2023-04-30T12:51:01.485Z,1.30
2023-04-30T12:53:33.381Z,1.50
2023-04-30T12:56:16.637Z,1.30
2023-04-30T12:58:51.394Z,1.40
2023-04-30T13:01:27.863Z,1.30
2023-04-30T13:04:00.236Z,1.60
2023-04-30T13:06:33.402Z,1.60
2023-04-30T13:09:05.977Z,1.60
2023-04-30T13:11:37.628Z,1.70
2023-04-30T13:14:11.028Z,1.50
2023-04-30T13:16:43.046Z,2.30
2023-04-30T13:19:14.475Z,1.40
2023-04-30T13:21:46.010Z,1.20
2023-04-30T13:24:18.391Z,1.30
2023-04-30T13:26:51.061Z,1.30
2023-04-30T13:29:23.101Z,1.40
2023-04-30T13:31:54.636Z,1.30
2023-04-30T13:34:26.424Z,1.20
2023-04-30T13:36:58.054Z,1.50
2023-04-30T13:39:29.757Z,1.40
2023-04-30T13:42:01.581Z,1.60
2023-04-30T13:44:33.990Z,1.40
2023-04-30T13:47:06.161Z,1.20
2023-04-30T13:49:37.848Z,1.40
2023-04-30T13:52:10.254Z,1.00
2023-04-30T13:54:41.849Z,1.70
2023-04-30T13:57:14.333Z,1.60
2023-04-30T13:59:46.255Z,1.40
2023-04-30T14:02:19.213Z,1.40
2023-04-30T14:05:04.566Z,1.60
2023-04-30T14:07:38.021Z,1.60
2023-04-30T14:10:11.479Z,2.40
2023-04-30T14:12:43.077Z,1.90
2023-04-30T14:15:15.575Z,2.60
2023-04-30T14:17:47.240Z,1.60
2023-04-30T14:20:18.820Z,1.30
2023-04-30T14:22:50.642Z,1.60
2023-04-30T14:25:22.354Z,1.60
2023-04-30T14:27:54.503Z,1.50
2023-04-30T14:30:26.674Z,1.60
2023-04-30T14:32:59.121Z,1.50
2023-04-30T14:35:31.173Z,1.50
2023-04-30T14:38:03.077Z,1.60
2023-04-30T14:40:34.803Z,1.40
2023-04-30T14:43:06.418Z,1.50
2023-04-30T14:45:39.187Z,1.50
2023-04-30T14:48:10.986Z,1.30
2023-04-30T14:50:42.733Z,1.60
2023-04-30T14:53:14.432Z,1.70
2023-04-30T14:55:46.838Z,1.50
2023-04-30T14:58:20.483Z,1.50
2023-04-30T15:00:53.170Z,1.50
2023-04-30T15:03:25.207Z,1.40
2023-04-30T15:05:57.459Z,1.50
2023-04-30T15:08:30.029Z,1.60
2023-04-30T15:11:01.728Z,1.60
2023-04-30T15:13:33.494Z,1.40
2023-04-30T15:16:05.052Z,1.40
2023-04-30T15:18:37.739Z,1.10
2023-04-30T15:21:09.570Z,1.70
2023-04-30T15:23:41.941Z,1.00
2023-04-30T15:26:13.992Z,1.20
2023-04-30T15:28:45.749Z,1.50
2023-04-30T15:31:17.463Z,1.20
2023-04-30T15:33:48.863Z,1.10
2023-04-30T15:36:22.574Z,1.50
2023-04-30T15:38:54.391Z,1.20
2023-04-30T15:41:26.164Z,1.30
2023-04-30T15:43:57.870Z,1.20
2023-04-30T15:46:30.621Z,1.40
2023-04-30T15:49:02.337Z,1.10
2023-04-30T15:51:34.665Z,1.60
2023-04-30T15:54:07.877Z,1.60
2023-04-30T15:56:39.983Z,1.30
2023-04-30T15:59:11.768Z,1.40
2023-04-30T16:01:44.297Z,1.30
2023-04-30T16:04:16.234Z,1.50
2023-04-30T16:06:48.237Z,1.60
2023-04-30T16:09:21.811Z,1.20
2023-04-30T16:11:54.180Z,1.30
2023-04-30T16:14:26.324Z,1.30
2023-04-30T16:16:57.982Z,1.60
2023-04-30T16:19:29.631Z,1.70
2023-04-30T16:22:02.053Z,1.50
2023-04-30T16:24:33.874Z,1.60
2023-04-30T16:27:05.447Z,1.70
2023-04-30T16:29:36.845Z,1.90
2023-04-30T16:32:09.308Z,1.90
2023-04-30T16:34:40.970Z,1.80
2023-04-30T16:37:14.227Z,1.70
2023-04-30T16:39:46.692Z,1.70
2023-04-30T16:42:18.700Z,1.80
2023-04-30T16:44:52.130Z,2.30
2023-04-30T16:47:24.257Z,3.50
2023-04-30T16:49:57.180Z,2.80
2023-04-30T16:52:30.007Z,2.10
2023-04-30T16:55:02.670Z,1.60
2023-04-30T16:57:35.240Z,1.50
2023-04-30T17:00:14.274Z,1.50
2023-04-30T17:02:50.633Z,2.00
2023-04-30T17:05:23.068Z,2.10
2023-04-30T17:07:54.803Z,3.00
2023-04-30T17:10:27.699Z,1.80
2023-04-30T17:13:02.720Z,1.70
2023-04-30T17:15:34.528Z,1.30
2023-04-30T17:18:08.642Z,1.50
2023-04-30T17:20:40.914Z,1.40
2023-04-30T17:23:12.873Z,2.60
2023-04-30T17:25:45.485Z,3.10
2023-04-30T17:28:18.785Z,2.40
2023-04-30T17:30:53.180Z,1.40
2023-04-30T17:33:26.911Z,1.70
2023-04-30T17:36:00.426Z,2.00
2023-04-30T17:38:33.438Z,1.80
2023-04-30T17:41:05.796Z,1.40
2023-04-30T17:43:38.750Z,1.80
2023-04-30T17:46:11.345Z,2.80
2023-04-30T17:48:43.453Z,4.10
2023-04-30T17:51:15.191Z,3.60
2023-04-30T17:53:54.766Z,5.70
2023-04-30T17:56:27.342Z,4.80
2023-04-30T17:59:00.177Z,5.20
2023-04-30T18:01:32.865Z,5.00
2023-04-30T18:04:06.615Z,4.60
2023-04-30T18:06:39.612Z,3.70
2023-04-30T18:09:11.297Z,2.50
2023-04-30T18:11:44.454Z,2.30
2023-04-30T18:14:17.445Z,1.80
2023-04-30T18:16:50.155Z,2.70
2023-04-30T18:19:23.096Z,3.60
2023-04-30T18:21:57.525Z,3.50
2023-04-30T18:24:29.542Z,3.70
2023-04-30T18:27:01.564Z,4.60
2023-04-30T18:29:34.181Z,7.50
2023-04-30T18:32:06.454Z,6.70
2023-04-30T18:34:39.412Z,5.90
2023-04-30T18:37:11.737Z,4.70
2023-04-30T18:39:43.462Z,4.40
2023-04-30T18:42:16.741Z,4.50
2023-04-30T18:44:48.695Z,4.20
2023-04-30T18:47:20.371Z,4.90
2023-04-30T18:49:51.956Z,5.00
2023-04-30T18:52:25.160Z,5.50
2023-04-30T18:54:57.468Z,5.40
2023-04-30T18:57:29.443Z,6.30
2023-04-30T19:00:02.193Z,8.40
2023-04-30T19:02:35.803Z,10.60
2023-04-30T19:05:10.844Z,11.10
2023-04-30T19:07:44.500Z,11.30
2023-04-30T19:10:17.550Z,17.40
2023-04-30T19:12:49.715Z,16.90
2023-04-30T19:15:25.661Z,16.30
2023-04-30T19:17:58.775Z,16.70
2023-04-30T19:20:31.652Z,18.20
2023-04-30T19:23:04.536Z,22.70
2023-04-30T19:25:39.024Z,20.90
2023-04-30T19:28:12.227Z,19.90
2023-04-30T19:30:45.411Z,16.60
2023-04-30T19:33:17.150Z,15.00
2023-04-30T19:35:55.150Z,13.50
2023-04-30T19:38:27.404Z,13.70
2023-04-30T19:40:59.445Z,14.80
2023-04-30T19:43:32.379Z,16.50
2023-04-30T19:46:05.312Z,15.90
2023-04-30T19:48:38.977Z,15.30
2023-04-30T19:51:10.371Z,14.80
2023-04-30T19:53:43.733Z,14.00
2023-04-30T19:56:15.200Z,15.20
2023-04-30T19:58:49.219Z,14.40
2023-04-30T20:01:22.520Z,16.10
2023-04-30T20:03:59.856Z,17.10
2023-04-30T20:06:33.939Z,19.00
2023-04-30T20:09:10.398Z,18.20
2023-04-30T20:11:43.171Z,18.00
2023-04-30T20:14:16.696Z,17.40
2023-04-30T20:16:54.517Z,16.30
2023-04-30T20:19:36.914Z,15.00
2023-04-30T20:22:14.497Z,13.60
2023-04-30T20:24:48.656Z,14.70
2023-04-30T20:27:21.487Z,14.70
2023-04-30T20:29:54.564Z,15.00
2023-04-30T20:32:26.360Z,13.70
2023-04-30T20:34:59.184Z,15.30
2023-04-30T20:37:32.585Z,15.60
2023-04-30T20:40:08.393Z,15.30
2023-04-30T20:42:43.036Z,14.40
2023-04-30T20:47:47.087Z,15.20
2023-04-30T20:50:20.803Z,15.40
2023-04-30T20:52:52.215Z,14.90
2023-04-30T20:55:25.432Z,15.10
2023-04-30T20:57:57.489Z,14.50
2023-04-30T21:00:29.813Z,14.50
2023-04-30T21:03:01.875Z,15.50
2023-04-30T21:05:33.588Z,14.80
2023-04-30T21:08:05.541Z,13.80
2023-04-30T21:10:38.857Z,12.90
2023-04-30T21:13:13.080Z,13.00
2023-04-30T21:15:45.768Z,12.70
2023-04-30T21:18:18.192Z,13.00
2023-04-30T21:20:49.834Z,12.90
2023-04-30T21:23:21.334Z,11.50
2023-04-30T21:25:57.039Z,11.40
2023-04-30T21:28:29.043Z,11.10
2023-04-30T21:31:04.654Z,11.40
2023-04-30T21:33:36.322Z,10.90
2023-04-30T21:36:32.238Z,12.50
2023-04-30T21:39:05.016Z,12.60
2023-04-30T21:41:36.590Z,13.20
2023-04-30T21:44:08.822Z,12.90
2023-04-30T21:46:41.198Z,13.50
2023-04-30T21:49:12.969Z,13.30
2023-04-30T21:51:44.654Z,13.30
2023-04-30T21:54:19.394Z,12.40
2023-04-30T21:59:20.520Z,12.70
2023-04-30T22:01:52.766Z,13.80
2023-04-30T22:04:25.517Z,14.50
2023-04-30T22:06:57.027Z,14.40
2023-04-30T22:09:30.546Z,17.00
2023-04-30T22:12:04.857Z,17.80
2023-04-30T22:14:36.850Z,19.50
2023-04-30T22:17:08.549Z,18.70
2023-04-30T22:19:40.026Z,17.60
2023-04-30T22:22:12.149Z,15.70
2023-04-30T22:24:43.930Z,16.00
2023-04-30T22:27:15.544Z,16.10
2023-04-30T22:29:50.124Z,15.70
2023-04-30T22:32:21.549Z,16.80
2023-04-30T22:34:53.138Z,14.80
2023-04-30T22:37:26.525Z,14.50
2023-04-30T22:39:58.543Z,14.20
2023-04-30T22:42:30.394Z,14.20
2023-04-30T22:45:02.849Z,14.10
2023-04-30T22:47:35.592Z,13.60
2023-04-30T22:50:09.303Z,14.40
2023-04-30T22:52:41.026Z,14.80
2023-04-30T22:55:14.121Z,14.90
2023-04-30T22:57:45.718Z,13.80
2023-04-30T23:00:21.445Z,14.40
2023-04-30T23:02:53.838Z,14.60
2023-04-30T23:05:25.414Z,15.80
2023-04-30T23:07:57.344Z,16.00
2023-04-30T23:10:30.092Z,15.50
2023-04-30T23:13:01.686Z,14.50
2023-04-30T23:15:33.315Z,14.80
2023-04-30T23:18:06.864Z,13.70
2023-04-30T23:20:38.583Z,13.10
2023-04-30T23:23:10.687Z,11.50
2023-04-30T23:25:42.118Z,10.80
2023-04-30T23:28:14.444Z,9.40
2023-04-30T23:30:46.525Z,9.80
2023-04-30T23:33:18.116Z,9.60
2023-04-30T23:35:49.963Z,9.90
2023-04-30T23:38:21.560Z,8.60
2023-04-30T23:40:56.588Z,8.60
2023-04-30T23:43:30.123Z,9.10
2023-04-30T23:46:02.236Z,8.90
2023-04-30T23:48:34.825Z,8.60
2023-04-30T23:51:09.228Z,8.70
2023-04-30T23:53:40.993Z,8.90
2023-04-30T23:56:12.625Z,7.90
2023-04-30T23:58:44.522Z,7.60
